Map

Track Data

SID SEASON NUMBER BASIN SUBBASIN NAME ISO_TIME NATURE LAT LON WMO_WIND WMO_PRES WMO_AGENCY TRACK_TYPE DIST2LAND LANDFALL IFLAG USA_AGENCY USA_ATCF_ID USA_LAT USA_LON USA_RECORD USA_STATUS USA_WIND USA_PRES USA_SSHS USA_R34_NE USA_R34_SE USA_R34_SW USA_R34_NW USA_R50_NE USA_R50_SE USA_R50_SW USA_R50_NW USA_R64_NE USA_R64_SE USA_R64_SW USA_R64_NW USA_POCI USA_ROCI USA_RMW USA_EYE TOKYO_LAT TOKYO_LON TOKYO_GRADE TOKYO_WIND TOKYO_PRES TOKYO_R50_DIR TOKYO_R50_LONG TOKYO_R50_SHORT TOKYO_R30_DIR TOKYO_R30_LONG TOKYO_R30_SHORT TOKYO_LAND CMA_LAT CMA_LON CMA_CAT CMA_WIND CMA_PRES HKO_LAT HKO_LON HKO_CAT HKO_WIND HKO_PRES NEWDELHI_LAT NEWDELHI_LON NEWDELHI_GRADE NEWDELHI_WIND NEWDELHI_PRES NEWDELHI_CI NEWDELHI_DP NEWDELHI_POCI REUNION_LAT REUNION_LON REUNION_TYPE REUNION_WIND REUNION_PRES REUNION_TNUM REUNION_CI REUNION_RMW REUNION_R34_NE REUNION_R34_SE REUNION_R34_SW REUNION_R34_NW REUNION_R50_NE REUNION_R50_SE REUNION_R50_SW REUNION_R50_NW REUNION_R64_NE REUNION_R64_SE REUNION_R64_SW REUNION_R64_NW BOM_LAT BOM_LON BOM_TYPE BOM_WIND BOM_PRES BOM_TNUM BOM_CI BOM_RMW BOM_R34_NE BOM_R34_SE BOM_R34_SW BOM_R34_NW BOM_R50_NE BOM_R50_SE BOM_R50_SW BOM_R50_NW BOM_R64_NE BOM_R64_SE BOM_R64_SW BOM_R64_NW BOM_ROCI BOM_POCI BOM_EYE BOM_POS_METHOD BOM_PRES_METHOD NADI_LAT NADI_LON NADI_CAT NADI_WIND NADI_PRES WELLINGTON_LAT WELLINGTON_LON WELLINGTON_WIND WELLINGTON_PRES DS824_LAT DS824_LON DS824_STAGE DS824_WIND DS824_PRES TD9636_LAT TD9636_LON TD9636_STAGE TD9636_WIND TD9636_PRES TD9635_LAT TD9635_LON TD9635_WIND TD9635_PRES TD9635_ROCI NEUMANN_LAT NEUMANN_LON NEUMANN_CLASS NEUMANN_WIND NEUMANN_PRES MLC_LAT MLC_LON MLC_CLASS MLC_WIND MLC_PRES USA_GUST BOM_GUST BOM_GUST_PER REUNION_GUST REUNION_GUST_PER USA_SEAHGT USA_SEARAD_NE USA_SEARAD_SE USA_SEARAD_SW USA_SEARAD_NW STORM_SPEED STORM_DIR
1969267N41325 1969 88 NA NA NOT_NAMED 1969-09-23 12:00:00 ET 40.5000 -35.0000 35 hurdat_atl main 1598 1598 O_____________ hurdat_atl AL221969 40.5000 -35.0000 EX 35 -4 10 178
1969267N41325 1969 88 NA NA NOT_NAMED 1969-09-23 15:00:00 ET 40.0000 -35.0000 main 1629 1629 P_____________ AL221969 40.0000 -35.0000 EX 35 -4 10 179
1969267N41325 1969 88 NA NA NOT_NAMED 1969-09-23 18:00:00 ET 39.5000 -35.0000 35 hurdat_atl main 1660 1660 O_____________ hurdat_atl AL221969 39.5000 -35.0000 EX 35 -4 10 179
1969267N41325 1969 88 NA NA NOT_NAMED 1969-09-23 21:00:00 ET 39.0000 -35.0000 main 1693 1693 P_____________ AL221969 39.0000 -35.0000 EX 35 -4 10 179
1969267N41325 1969 88 NA NA NOT_NAMED 1969-09-24 00:00:00 ET 38.5000 -35.0000 35 hurdat_atl main 1726 1726 O_____________ hurdat_atl AL221969 38.5000 -35.0000 EX 35 -4 10 179
1969267N41325 1969 88 NA NA NOT_NAMED 1969-09-24 03:00:00 ET 38.0000 -34.9847 main 1761 1761 P_____________ AL221969 38.0000 -34.9847 EX 35 -4 10 179
1969267N41325 1969 88 NA NA NOT_NAMED 1969-09-24 06:00:00 ET 37.5000 -35.0000 35 hurdat_atl main 1797 1797 O_____________ hurdat_atl AL221969 37.5000 -35.0000 EX 35 -4 10 183
1969267N41325 1969 88 NA NA NOT_NAMED 1969-09-24 09:00:00 ET 36.9849 -35.0624 main 1828 1828 P_____________ AL221969 36.9849 -35.0624 EX 35 -4 10 189
1969267N41325 1969 88 NA NA NOT_NAMED 1969-09-24 12:00:00 ET 36.5000 -35.2000 35 hurdat_atl main 1859 1859 O_____________ hurdat_atl AL221969 36.5000 -35.2000 EX 35 -4 10 197
1969267N41325 1969 88 NA NA NOT_NAMED 1969-09-24 15:00:00 ET 36.0624 -35.4050 main 1877 1877 P_____________ AL221969 36.0624 -35.4050 EX 35 -4 9 207
1969267N41325 1969 88 NA NA NOT_NAMED 1969-09-24 18:00:00 ET 35.7000 -35.7000 35 1004 hurdat_atl main 1890 1886 O_____________ hurdat_atl AL221969 35.7000 -35.7000 EX 35 1004 -4 9 220
1969267N41325 1969 88 NA NA NOT_NAMED 1969-09-24 21:00:00 ET 35.4051 -36.0776 main 1889 1879 P_____________ AL221969 35.4051 -36.0776 EX 37 1004 -4 8 233
1969267N41325 1969 88 NA NA NOT_NAMED 1969-09-25 00:00:00 SS 35.2000 -36.5000 40 hurdat_atl main 1881 1865 I_____________ hurdat_atl AL221969 35.2000 -36.5000 SS 40 1004 -2 8 243
1969267N41325 1969 88 NA NA NOT_NAMED 1969-09-25 03:00:00 SS 35.0624 -36.9073 main 1865 1849 P_____________ AL221969 35.0624 -36.9073 SS 40 1004 -2 7 253
1969267N41325 1969 88 NA NA NOT_NAMED 1969-09-25 06:00:00 SS 35.0000 -37.3000 40 1004 hurdat_atl main 1849 1831 O_____________ hurdat_atl AL221969 35.0000 -37.3000 SS 40 1004 -2 6 262
1969267N41325 1969 88 NA NA NOT_NAMED 1969-09-25 09:00:00 SS 34.9774 -37.6649 main 1825 1808 P_____________ AL221969 34.9774 -37.6649 SS 40 1004 -2 6 270
1969267N41325 1969 88 NA NA NOT_NAMED 1969-09-25 12:00:00 SS 35.0000 -38.0000 40 hurdat_atl main 1808 1790 I_____________ hurdat_atl AL221969 35.0000 -38.0000 SS 40 1004 -2 5 277
1969267N41325 1969 88 NA NA NOT_NAMED 1969-09-25 15:00:00 SS 35.0425 -38.3224 main 1790 1765 P_____________ AL221969 35.0425 -38.3224 SS 40 1004 -2 5 282
1969267N41325 1969 88 NA NA NOT_NAMED 1969-09-25 18:00:00 SS 35.1000 -38.6000 40 1005 hurdat_atl main 1765 1753 O_____________ hurdat_atl AL221969 35.1000 -38.6000 SS 40 1005 -2 4 285
1969267N41325 1969 88 NA NA NOT_NAMED 1969-09-25 21:00:00 SS 35.1499 -38.8225 main 1753 1733 P_____________ AL221969 35.1499 -38.8225 SS 42 -2 3 287
1969267N41325 1969 88 NA NA NOT_NAMED 1969-09-26 00:00:00 SS 35.2000 -39.0000 45 hurdat_atl main 1733 1722 O_____________ hurdat_atl AL221969 35.2000 -39.0000 SS 45 -2 3 288
1969267N41325 1969 88 NA NA NOT_NAMED 1969-09-26 03:00:00 SS 35.2425 -39.1650 main 1722 1708 P_____________ AL221969 35.2425 -39.1650 SS 47 -2 3 292
1969267N41325 1969 88 NA NA NOT_NAMED 1969-09-26 06:00:00 TS 35.3000 -39.3000 50 hurdat_atl main 1708 1693 O_____________ hurdat_atl AL221969 35.3000 -39.3000 TS 50 0 2 302
1969267N41325 1969 88 NA NA NOT_NAMED 1969-09-26 09:00:00 TS 35.3700 -39.4150 main 1693 1679 P_____________ AL221969 35.3700 -39.4150 TS 50 0 3 320
1969267N41325 1969 88 NA NA NOT_NAMED 1969-09-26 12:00:00 TS 35.5000 -39.5000 50 hurdat_atl main 1679 1656 O_____________ hurdat_atl AL221969 35.5000 -39.5000 TS 50 0 4 341
1969267N41325 1969 88 NA NA NOT_NAMED 1969-09-26 15:00:00 TS 35.7275 -39.5575 main 1656 1630 P_____________ AL221969 35.7275 -39.5575 TS 50 0 5 351
1969267N41325 1969 88 NA NA NOT_NAMED 1969-09-26 18:00:00 TS 36.0000 -39.6000 50 hurdat_atl main 1630 1607 O_____________ hurdat_atl AL221969 36.0000 -39.6000 TS 50 0 5 352
1969267N41325 1969 88 NA NA NOT_NAMED 1969-09-26 21:00:00 TS 36.2500 -39.6575 main 1598 1581 P_____________ AL221969 36.2500 -39.6575 TS 52 0 5 351
1969267N41325 1969 88 NA NA NOT_NAMED 1969-09-27 00:00:00 TS 36.5000 -39.7000 55 hurdat_atl main 1581 1565 O_____________ hurdat_atl AL221969 36.5000 -39.7000 TS 55 0 5 355
1969267N41325 1969 88 NA NA NOT_NAMED 1969-09-27 03:00:00 TS 36.7500 -39.7076 main 1556 1540 P_____________ AL221969 36.7500 -39.7076 TS 57 0 5 2
1969267N41325 1969 88 NA NA NOT_NAMED 1969-09-27 06:00:00 TS 37.0000 -39.7000 60 hurdat_atl main 1540 1523 O_____________ hurdat_atl AL221969 37.0000 -39.7000 TS 60 0 5 1
1969267N41325 1969 88 NA NA NOT_NAMED 1969-09-27 09:00:00 TS 37.2425 -39.7000 main 1523 1498 P_____________ AL221969 37.2425 -39.7000 TS 60 0 5 2
1969267N41325 1969 88 NA NA NOT_NAMED 1969-09-27 12:00:00 TS 37.5000 -39.7000 60 hurdat_atl main 1498 1474 O_____________ hurdat_atl AL221969 37.5000 -39.7000 TS 60 0 6 0
1969267N41325 1969 88 NA NA NOT_NAMED 1969-09-27 15:00:00 TS 37.7925 -39.7000 main 1474 1451 P_____________ AL221969 37.7925 -39.7000 TS 60 0 6 0
1969267N41325 1969 88 NA NA NOT_NAMED 1969-09-27 18:00:00 TS 38.1000 -39.7000 60 hurdat_atl main 1451 1427 O_____________ hurdat_atl AL221969 38.1000 -39.7000 TS 60 0 6 1
1969267N41325 1969 88 NA NA NOT_NAMED 1969-09-27 21:00:00 TS 38.3925 -39.6926 main 1427 1404 P_____________ AL221969 38.3925 -39.6926 TS 60 0 6 0
1969267N41325 1969 88 NA NA NOT_NAMED 1969-09-28 00:00:00 TS 38.7000 -39.7000 60 hurdat_atl main 1404 1381 O_____________ hurdat_atl AL221969 38.7000 -39.7000 TS 60 0 7 357
1969267N41325 1969 88 NA NA NOT_NAMED 1969-09-28 03:00:00 TS 39.0500 -39.7424 main 1373 1345 P_____________ AL221969 39.0500 -39.7424 TS 60 0 7 354
1969267N41325 1969 88 NA NA NOT_NAMED 1969-09-28 06:00:00 TS 39.4000 -39.8000 60 hurdat_atl main 1345 1322 O_____________ hurdat_atl AL221969 39.4000 -39.8000 TS 60 0 7 353
1969267N41325 1969 88 NA NA NOT_NAMED 1969-09-28 09:00:00 TS 39.7075 -39.8427 main 1322 1294 P_____________ AL221969 39.7075 -39.8427 TS 60 0 6 352
1969267N41325 1969 88 NA NA NOT_NAMED 1969-09-28 12:00:00 TS 40.0000 -39.9000 60 hurdat_atl main 1294 1266 O_____________ hurdat_atl AL221969 40.0000 -39.9000 TS 60 0 6 349
1969267N41325 1969 88 NA NA NOT_NAMED 1969-09-28 15:00:00 TS 40.3000 -39.9851 main 1266 1239 P_____________ AL221969 40.3000 -39.9851 TS 60 0 6 346
1969267N41325 1969 88 NA NA NOT_NAMED 1969-09-28 18:00:00 TS 40.6000 -40.1000 60 hurdat_atl main 1239 1212 O_____________ hurdat_atl AL221969 40.6000 -40.1000 TS 60 0 6 342
1969267N41325 1969 88 NA NA NOT_NAMED 1969-09-28 21:00:00 TS 40.9000 -40.2425 main 1212 1179 P_____________ AL221969 40.9000 -40.2425 TS 60 0 6 339
1969267N41325 1969 88 NA NA NOT_NAMED 1969-09-29 00:00:00 TS 41.2000 -40.4000 60 hurdat_atl main 1179 1153 O_____________ hurdat_atl AL221969 41.2000 -40.4000 TS 60 0 6 339
1969267N41325 1969 88 NA NA NOT_NAMED 1969-09-29 03:00:00 TS 41.4925 -40.5502 main 1146 1120 P_____________ AL221969 41.4925 -40.5502 TS 60 0 6 340
1969267N41325 1969 88 NA NA NOT_NAMED 1969-09-29 06:00:00 TS 41.8000 -40.7000 60 hurdat_atl main 1120 1095 O_____________ hurdat_atl AL221969 41.8000 -40.7000 TS 60 0 7 340
1969267N41325 1969 88 NA NA NOT_NAMED 1969-09-29 09:00:00 TS 42.1200 -40.8576 main 1088 1057 P_____________ AL221969 42.1200 -40.8576 TS 60 0 7 342
1969267N41325 1969 88 NA NA NOT_NAMED 1969-09-29 12:00:00 TS 42.5000 -41.0000 60 hurdat_atl main 1057 1028 O_____________ hurdat_atl AL221969 42.5000 -41.0000 TS 60 0 8 346
1969267N41325 1969 88 NA NA NOT_NAMED 1969-09-29 15:00:00 TS 42.9250 -41.1368 main 1028 988 P_____________ AL221969 42.9250 -41.1368 TS 57 0 10 352
1969267N41325 1969 88 NA NA NOT_NAMED 1969-09-29 18:00:00 TS 43.5000 -41.2000 55 hurdat_atl main 988 951 O_____________ hurdat_atl AL221969 43.5000 -41.2000 TS 55 0 14 360
1969267N41325 1969 88 NA NA NOT_NAMED 1969-09-29 21:00:00 TS 44.2876 -41.1391 main 953 925 P_____________ AL221969 44.2876 -41.1391 TS 52 0 17 5
1969267N41325 1969 88 NA NA NOT_NAMED 1969-09-30 00:00:00 TS 45.2000 -41.0000 50 hurdat_atl main 921 O_____________ hurdat_atl AL221969 45.2000 -41.0000 TS 50 0 18 6

About IBTrACS Database

This database is a web-friendly format of International Best Track Archive for Climate Stewardship (IBTrACS), a global best track data archive curated by NOAA dating back to 1842.

Updated: 2022-11-16